Bridge Hampton, New York
Current Conditions -  °F | °C
As of 6:53 PM on Wednesday 22 Oct 2014 (Local Time) from KFOK Reporting Station
Overcast Overcast  
Wind Chill: 53°   Ceiling: 1700
Heat Index: 53°   Visibility: 10mi
Dew Point: 49°   Wind: 24mph
Humidity: 86%   Direction: 10°N
Pressure: 29.7"   Gusts: 38mph
Location:  40.9594°N, 72.2887°W
Report Text: KFOK 222253Z 01021G33KT 10SM OVC017 12/09 A2970 RMK AO2 PK WND 01033/2246 RAE48 SLP055 P0006 T01170094
Loading
Personal Weather Stations






























Interactive Weather Map
Tropical Storm Tracking
New forecast layout! Learn more

10-Day Weather Forecast

Advertisements
Track Severe Weather on mobile